Eira — OJJP — position and weather

sailwx.info

Track history (hours):
 
Tides and Currents Weather Stations Pressure Air Temp Water Temp Dewpoint Dewpoint Depression Visibility Wind Speed Wind Dir Waves Ship Positions

Eira

Last reported at 2015-May-05 10:33 UTC. Time now 2015-May-05 11:14 UTC.
Position N 59°37' E 022°58'.

Length 157 m; draft 6 m.

Type: Cargo ship. MMSI: 230935000.

Date/timePositionNaut miles runAvg speedWind from/ knotsBaromVisibWave heightAir tempDewpointWater temp
2015-May-05 10:33N 59°37' E 022°58'3612.1
2015-May-05 07:33N 59°34' E 021°46'1111.4
2015-May-05 06:33N 59°39' E 021°25'1111.3
2015-May-05 05:33N 59°50' E 021°22'  
2015-May-02 18:18N 59°53' E 021°33'811.4
2015-May-02 17:33N 59°48' E 021°21'1010.3
2015-May-02 16:33N 59°38' E 021°27'10 9.8
2015-May-02 15:33N 59°32' E 021°42'1110.3
2015-May-02 14:32N 59°34' E 022°03'3110.4
2015-May-02 11:33N 59°39' E 023°03'1110.4
2015-May-02 10:30N 59°41' E 023°25'3310.9
2015-May-02 07:29N 59°48' E 024°28'6410.7
2015-May-02 01:31N 60°01' E 026°33'1010.4
2015-May-02 00:33N 60°00' E 026°53'10 9.9
2015-May-01 23:31N 60°03' E 027°13'2 0.0
2015-Apr-30 16:33N 60°02' E 027°16'1110.2
2015-Apr-30 15:29N 59°59' E 026°55'1010.8
2015-Apr-30 14:33N 59°59' E 026°35'1111.1
2015-Apr-30 13:32N 59°56' E 026°13'1111.0
2015-Apr-30 12:30N 59°53' E 025°51'29 9.6
2015-Apr-30 09:26N 60°07' E 024°59'4 0.2
2015-Apr-29 16:11N 60°11' E 024°58'0 0.0
2015-Apr-29 12:32N 60°11' E 024°58'0 0.0
2015-Apr-29 11:29N 60°11' E 024°58'0 0.0
2015-Apr-29 10:11N 60°11' E 024°58'0 0.0
2015-Apr-29 07:29N 60°11' E 024°58'0 0.0
2015-Apr-28 13:05N 60°11' E 024°58'0 0.0
2015-Apr-28 12:29N 60°11' E 024°58'0 0.0
2015-Apr-28 11:32N 60°11' E 024°58'0 0.0
2015-Apr-28 10:29N 60°11' E 024°58'0 0.0
2015-Apr-28 09:29N 60°11' E 024°58'3 3.3
2015-Apr-28 08:33N 60°08' E 024°59'30 9.2
2015-Apr-28 05:20N 59°56' E 025°54'1111.0
2015-Apr-28 04:18N 59°59' E 026°16'911.0
2015-Apr-28 03:28N 60°01' E 026°34'1011.0
2015-Apr-28 02:32N 60°00' E 026°54'4 0.1
2015-Apr-26 14:14N 59°58' E 026°60'710.7
2015-Apr-26 13:33N 59°59' E 026°45'1010.3
2015-Apr-26 12:33N 59°58' E 026°25'5310.5
2015-Apr-26 07:30N 59°46' E 024°42'1010.4
2015-Apr-26 06:33N 59°44' E 024°23'2110.3
2015-Apr-26 04:32N 59°41' E 023°43'1010.3
2015-Apr-26 03:33N 59°40' E 023°23'1010.3
2015-Apr-26 02:33N 59°38' E 023°02'3110.2
2015-Apr-25 23:33N 59°35' E 022°02'1010.2
2015-Apr-25 22:33N 59°35' E 021°42'9 9.4
2015-Apr-25 21:33N 59°39' E 021°26'9 9.5
2015-Apr-25 20:33N 59°48' E 021°20'1813.1
2015-Apr-25 19:13N 60°03' E 021°41'  
Track history (hours):
 
Tides and Currents Weather Stations Pressure Air Temp Water Temp Dewpoint Dewpoint Depression Visibility Wind Speed Wind Dir Waves Ship Positions

Eira

Last reported at 2015-May-05 10:33 UTC. Time now 2015-May-05 11:14 UTC.
Position N 59°37' E 022°58'.

Length 157 m; draft 6 m.

Type: Cargo ship. MMSI: 230935000.

Date/timePositionNaut miles runAvg speedWind from/ knotsBaromVisibWave heightAir tempDewpointWater temp
2015-May-05 10:33N 59°37' E 022°58'3612.1
2015-May-05 07:33N 59°34' E 021°46'1111.4
2015-May-05 06:33N 59°39' E 021°25'1111.3
2015-May-05 05:33N 59°50' E 021°22'  
2015-May-02 18:18N 59°53' E 021°33'811.4
2015-May-02 17:33N 59°48' E 021°21'1010.3
2015-May-02 16:33N 59°38' E 021°27'10 9.8
2015-May-02 15:33N 59°32' E 021°42'1110.3
2015-May-02 14:32N 59°34' E 022°03'3110.4
2015-May-02 11:33N 59°39' E 023°03'1110.4
2015-May-02 10:30N 59°41' E 023°25'3310.9
2015-May-02 07:29N 59°48' E 024°28'6410.7
2015-May-02 01:31N 60°01' E 026°33'1010.4
2015-May-02 00:33N 60°00' E 026°53'10 9.9
2015-May-01 23:31N 60°03' E 027°13'2 0.0
2015-Apr-30 16:33N 60°02' E 027°16'1110.2
2015-Apr-30 15:29N 59°59' E 026°55'1010.8
2015-Apr-30 14:33N 59°59' E 026°35'1111.1
2015-Apr-30 13:32N 59°56' E 026°13'1111.0
2015-Apr-30 12:30N 59°53' E 025°51'29 9.6
2015-Apr-30 09:26N 60°07' E 024°59'4 0.2
2015-Apr-29 16:11N 60°11' E 024°58'0 0.0
2015-Apr-29 12:32N 60°11' E 024°58'0 0.0
2015-Apr-29 11:29N 60°11' E 024°58'0 0.0
2015-Apr-29 10:11N 60°11' E 024°58'0 0.0
2015-Apr-29 07:29N 60°11' E 024°58'0 0.0
2015-Apr-28 13:05N 60°11' E 024°58'0 0.0
2015-Apr-28 12:29N 60°11' E 024°58'0 0.0
2015-Apr-28 11:32N 60°11' E 024°58'0 0.0
2015-Apr-28 10:29N 60°11' E 024°58'0 0.0
2015-Apr-28 09:29N 60°11' E 024°58'3 3.3
2015-Apr-28 08:33N 60°08' E 024°59'30 9.2
2015-Apr-28 05:20N 59°56' E 025°54'1111.0
2015-Apr-28 04:18N 59°59' E 026°16'911.0
2015-Apr-28 03:28N 60°01' E 026°34'1011.0
2015-Apr-28 02:32N 60°00' E 026°54'4 0.1
2015-Apr-26 14:14N 59°58' E 026°60'710.7
2015-Apr-26 13:33N 59°59' E 026°45'1010.3
2015-Apr-26 12:33N 59°58' E 026°25'5310.5
2015-Apr-26 07:30N 59°46' E 024°42'1010.4
2015-Apr-26 06:33N 59°44' E 024°23'2110.3
2015-Apr-26 04:32N 59°41' E 023°43'1010.3
2015-Apr-26 03:33N 59°40' E 023°23'1010.3
2015-Apr-26 02:33N 59°38' E 023°02'3110.2
2015-Apr-25 23:33N 59°35' E 022°02'1010.2
2015-Apr-25 22:33N 59°35' E 021°42'9 9.4
2015-Apr-25 21:33N 59°39' E 021°26'9 9.5
2015-Apr-25 20:33N 59°48' E 021°20'1813.1
2015-Apr-25 19:13N 60°03' E 021°41'  

Dump ship's entire track history